Luchthavens in de buurt

   
Beek
Gewijzigd: 09-12-2019 18:55
Grotendeels bewolkt  
Grotendeels bewolkt  
   Wind: NW 16.7 km/h
Wind: NW 16.7 km/h
Temperatuur: 6°C
Voelt als: 3°C
Dauwpunt: 4°C
Vochtigheid: 87%
Barometer: 1012 hPa
Bewolking: Grotendeels bewolkt
Zicht: meer dan 10 km
Bewolking: Gedeeltelijk bewolkt 853.4 m,
Gedeeltelijk bewolkt 975.4 m,
Grotendeels bewolkt 1188.7 m
EHBK 091755Z AUTO 32009KT 280V360 9999 SCT028 SCT032 BKN039 06/04 Q1012 NOSIG
Eindhoven
Gewijzigd: 09-12-2019 18:55
Helder  
Helder  
   Wind: NW 14.8 km/h
Wind: NW 14.8 km/h
Temperatuur: 6°C
Voelt als: 3°C
Dauwpunt: 2°C
Vochtigheid: 76%
Barometer: 1013 hPa
Bewolking: Helder
Zicht: meer dan 10 km
Bewolking: Helder
EHEH 091755Z AUTO 32008KT 260V360 9999 NCD 06/02 Q1013 BLU 33010KT 9999 FEW025 SCT030 BKN060 TEMPO 33014G24KT
Rotterdam
Gewijzigd: 09-12-2019 18:55
Helder  
Helder  
   Wind: NNW 27.8 km/h
Wind: NNW 27.8 km/h
Temperatuur: 7°C
Voelt als: 3°C
Dauwpunt: 1°C
Vochtigheid: 66%
Barometer: 1014 hPa
Bewolking: Helder
Zicht: meer dan 10 km
Bewolking: Helder
EHRD 091755Z AUTO 34015KT 300V020 9999 NCD 07/01 Q1014 TEMPO 34020G30KT 7000 -SHRA SCT030TCU
Amsterdam
Gewijzigd: 09-12-2019 18:55
Licht bewolkt  
Licht bewolkt  
   Wind: NNW 31.5 km/h
Wind: NNW 31.5 km/h
Temperatuur: 7°C
Voelt als: 3°C
Dauwpunt: 1°C
Vochtigheid: 66%
Barometer: 1013 hPa
Bewolking: Licht bewolkt
Zicht: meer dan 10 km
Bewolking: Licht bewolkt 914.4 m
EHAM 091755Z 33017KT 300V010 9999 FEW030 07/01 Q1013 NOSIG
Liège
Gewijzigd: 09-12-2019 18:50
Gedeeltelijk bewolkt  
Gedeeltelijk bewolkt  
   Wind: NW 20.4 km/h
Wind: NW 20.4 km/h
Temperatuur: 5°C
Voelt als: 1°C
Dauwpunt: 3°C
Vochtigheid: 87%
Barometer: 1013 hPa
Bewolking: Gedeeltelijk bewolkt
Zicht: meer dan 10 km
Bewolking: Licht bewolkt 823 m,
Gedeeltelijk bewolkt 975.4 m
EBLG 091750Z 32011KT 9999 FEW027 SCT032 05/03 Q1013 NOSIG
Bruxelles
Gewijzigd: 09-12-2019 18:50
Gedeeltelijk bewolkt  
Gedeeltelijk bewolkt  
   Wind: NNW 22.2 km/h
Wind: NNW 22.2 km/h
Temperatuur: 6°C
Voelt als: 2°C
Dauwpunt: 3°C
Vochtigheid: 81%
Barometer: 1015 hPa
Bewolking: Gedeeltelijk bewolkt
Zicht: meer dan 10 km
Bewolking: Gedeeltelijk bewolkt 792.5 m
EBBR 091750Z 33012KT 9999 SCT026 06/03 Q1015 NOSIG
Luxembourg
Gewijzigd: 09-12-2019 18:50
Wat regen mogelijk, Grotendeels bewolkt  
Wat regen mogelijk, Grotendeels bewolkt  
   Wind: NW 29.6 km/h
Wind: NW 29.6 km/h
Temperatuur: 4°C
Voelt als: -1°C
Dauwpunt: 3°C
Vochtigheid: 93%
Barometer: 1010 hPa
Bewolking: Grotendeels bewolkt
Zicht: meer dan 10 km
Bewolking: Licht bewolkt 304.8 m,
Grotendeels bewolkt 426.7 m
ELLX 091750Z 31016KT 9999 -RA FEW010 BKN014 04/03 Q1010 NOSIG
Düsseldorf
Gewijzigd: 09-12-2019 18:50
Grotendeels bewolkt  
Grotendeels bewolkt  
   Wind: NW 22.2 km/h
Wind: NW 22.2 km/h
Temperatuur: 7°C
Voelt als: 3°C
Dauwpunt: 4°C
Vochtigheid: 81%
Barometer: 1010 hPa
Bewolking: Grotendeels bewolkt
Zicht: meer dan 10 km
Bewolking: Licht bewolkt 365.8 m,
Grotendeels bewolkt 1219.2 m
EDDL 091750Z 32012KT 9999 FEW012 BKN040 07/04 Q1010 NOSIG
Frankfurt am Main
Gewijzigd: 09-12-2019 18:50
Lichte buien, Regen, Grotendeels bewolkt  
Lichte buien, Regen, Grotendeels bewolkt  
   Wind: WZW 11.1 km/h
Wind: WZW 11.1 km/h
Temperatuur: 7°C
Voelt als: 5°C
Dauwpunt: 5°C
Vochtigheid: 87%
Barometer: 1007 hPa
Bewolking: Grotendeels bewolkt
Zicht: meer dan 10 km
Bewolking: Gedeeltelijk bewolkt 731.5 m,
Grotendeels bewolkt 1219.2 m
EDDF 091750Z 25006KT 9999 -SHRA SCT024TCU BKN040 07/05 Q1007 TEMPO SHRA

Originele script door Saratoga weather  Aangepast door weerstation Leuven 

U vindt ons ook hier:

Het Weer Aktueel

WeatherlinkIP

Weather Underground

KnmiWow

UK Metoffice

Apparatuur in gebruik:

Weerstation
Davis Vantage Pro 2

Datalogger
Davis Weatherlink

Weercomputer
Meteobridge Pro

Leverancier
Weerspecialist

Webleverancier
Robohost

Davis Vantage Pro 2

Davis Weatherlink

Meteobridge Pro

Weerspecialist

Robohost